Terminal Aerodrome Forecast
Issued by NWS Portland, OR

Home | Current Version | Previous Version | Text Only | Print | Product List | Glossary On
Versions: 1 2 3 4 5 6 7 8 9 10 11 12 13 14 15 16 17 18 19 20 21 22 23 24 25 26 27 28 29 30 31 32 33 34
287
FTUS46 KPQR 242337
TAFSLE
TAF
KSLE 242337Z 2500/2524 18008KT P6SM SCT035 SCT250
     FM251000 16004KT 3SM BR SCT250
     FM251300 VRB03KT 2SM BR BKN003
     FM251800 17006KT 4SM -RA BR BKN015 OVC050=

USA.gov is the U.S. government's official web portal to all federal, state and local government web resources and services.